Time;durP1;ratioP1;P1;durP2;ratioP2;P2;SDS_P1;SDS_P2;PMS_P1;PMS_P2;Temp;Humidity;BMP_temperature;BMP_pressure;BME280_temperature;BME280_humidity;BME280_pressure;Samples;Min_cycle;Max_cycle;Signal;HPM_P1;HPM_P2
2022/11/20 00:01:18;;;;;;;18.37;10.70;;;-4.00;99.90;-4.50;100140.00;;;;4894248;28;121480;-62
2022/11/20 00:03:44;;;;;;;18.37;10.23;;;-4.10;99.90;-4.50;100157.00;;;;4892323;28;93056;-62
2022/11/20 00:06:14;;;;;;;20.47;9.77;;;-4.10;99.90;-4.50;100133.00;;;;4895809;28;92894;-62
2022/11/20 00:08:40;;;;;;;17.73;10.40;;;-4.00;99.90;-4.60;100135.00;;;;4893099;28;94028;-63
2022/11/20 00:11:21;;;;;;;19.13;10.83;;;-3.80;99.90;-4.60;100145.00;;;;4894472;28;110651;-61
2022/11/20 00:13:50;;;;;;;18.07;10.30;;;-4.00;99.90;-4.60;100143.00;;;;4894729;28;92946;-63
2022/11/20 00:16:20;;;;;;;18.83;10.60;;;-4.10;99.90;-4.70;100146.00;;;;4891428;28;98020;-62
2022/11/20 00:18:47;;;;;;;17.87;9.20;;;-4.10;99.90;-4.70;100136.00;;;;4895024;28;102139;-62
2022/11/20 00:21:20;;;;;;;16.93;10.13;;;-4.10;99.90;-4.80;100148.00;;;;4892434;28;107113;-63
2022/11/20 00:23:45;;;;;;;16.87;9.30;;;-4.30;99.90;-4.80;100142.00;;;;4893325;28;93826;-62
2022/11/20 00:26:17;;;;;;;17.97;10.53;;;-4.30;99.90;-4.80;100134.00;;;;4890717;28;113053;-61
2022/11/20 00:28:44;;;;;;;14.70;10.37;;;-4.20;99.90;-4.90;100146.00;;;;4891888;28;93027;-63
2022/11/20 00:31:15;;;;;;;17.83;9.43;;;-4.30;99.90;-4.90;100130.00;;;;4890080;28;94239;-63
2022/11/20 00:33:42;;;;;;;17.33;10.67;;;-3.80;99.90;-4.90;100133.00;;;;4889352;28;115981;-63
2022/11/20 00:36:31;;;;;;;18.73;11.13;;;-4.40;99.90;-5.00;100124.00;;;;4892053;28;92833;-62
2022/11/20 00:38:58;;;;;;;18.80;9.73;;;-4.40;99.90;-5.00;100136.00;;;;4892272;28;100706;-62
2022/11/20 00:41:25;;;;;;;20.53;10.73;;;-4.40;99.90;-5.00;100130.00;;;;4892776;28;93673;-63
2022/11/20 00:43:53;;;;;;;21.40;11.23;;;-4.50;99.90;-5.00;100130.00;;;;4892671;28;93399;-62
2022/11/20 00:46:24;;;;;;;17.10;10.10;;;-4.30;99.90;-5.10;100131.00;;;;4895252;28;92874;-64
2022/11/20 00:48:51;;;;;;;15.03;10.17;;;-4.50;99.90;-5.10;100127.00;;;;4896405;28;93188;-62
2022/11/20 00:51:20;;;;;;;17.83;10.37;;;-4.50;99.90;-5.10;100140.00;;;;4894199;28;124086;-63
2022/11/20 00:53:46;;;;;;;18.30;10.93;;;-4.50;99.90;-5.20;100139.00;;;;4892371;28;94212;-63
2022/11/20 00:56:17;;;;;;;19.93;10.97;;;-4.60;99.90;-5.20;100139.00;;;;4895375;28;93021;-63
2022/11/20 00:58:45;;;;;;;19.40;10.33;;;-4.60;99.90;-5.20;100147.00;;;;4895611;28;93754;-64
2022/11/20 01:01:30;;;;;;;25.07;10.80;;;-4.80;99.90;-5.20;100147.00;;;;4891911;28;92874;-62
2022/11/20 01:03:59;;;;;;;17.73;11.03;;;-4.60;99.90;-5.30;100143.00;;;;4891712;28;93640;-63
2022/11/20 01:06:29;;;;;;;17.57;10.07;;;-4.70;99.90;-5.30;100157.00;;;;4893911;28;93036;-63
2022/11/20 01:08:58;;;;;;;19.03;11.67;;;-4.70;99.90;-5.40;100159.00;;;;4895201;28;93248;-64
2022/11/20 01:11:31;;;;;;;16.37;9.50;;;-4.40;99.90;-5.40;100158.00;;;;4889706;28;92993;-62
2022/11/20 01:13:58;;;;;;;21.33;10.20;;;-4.80;99.90;-5.40;100168.00;;;;4891344;28;93802;-64
2022/11/20 01:16:34;;;;;;;18.70;9.63;;;-4.90;99.90;-5.50;100161.00;;;;4894005;28;93425;-63
2022/11/20 01:19:04;;;;;;;17.90;11.30;;;-4.80;99.90;-5.50;100170.00;;;;4907171;28;93240;-63
2022/11/20 01:21:36;;;;;;;16.03;9.00;;;-4.80;99.90;-5.50;100174.00;;;;4895830;28;94263;-63
2022/11/20 01:24:04;;;;;;;20.57;11.37;;;-4.80;99.90;-5.60;100181.00;;;;4894389;28;99624;-63
2022/11/20 01:26:33;;;;;;;14.57;10.63;;;-4.90;99.90;-5.60;100171.00;;;;4891884;28;93016;-63
2022/11/20 01:29:00;;;;;;;20.73;12.57;;;-5.00;99.90;-5.60;100172.00;;;;4891831;28;103196;-63
2022/11/20 01:31:28;;;;;;;20.27;11.37;;;-5.00;99.90;-5.70;100175.00;;;;4894835;28;93220;-63
2022/11/20 01:33:59;;;;;;;18.57;10.53;;;-5.10;99.90;-5.70;100180.00;;;;4896535;28;93326;-63
2022/11/20 01:36:27;;;;;;;18.80;10.97;;;-5.10;99.90;-5.70;100168.00;;;;4894149;28;93080;-64
2022/11/20 01:38:57;;;;;;;19.37;10.73;;;-5.10;99.90;-5.70;100177.00;;;;4895433;28;92648;-63
2022/11/20 01:44:14;;;;;;;23.23;12.00;;;-5.20;99.90;-5.80;100160.00;;;;4889352;28;93057;-63
2022/11/20 01:46:50;;;;;;;20.03;12.33;;;-4.30;99.90;-5.80;100161.00;;;;4893191;28;92954;-63
2022/11/20 01:49:26;;;;;;;24.00;12.80;;;-5.20;99.90;-5.90;100160.00;;;;4890995;28;100331;-63
2022/11/20 01:52:08;;;;;;;22.33;13.43;;;-5.30;99.90;-6.00;100154.00;;;;4894840;28;105981;-63
2022/11/20 01:54:45;;;;;;;22.93;12.70;;;-5.40;99.90;-6.00;100150.00;;;;4896179;28;116873;-63
2022/11/20 01:57:12;;;;;;;24.47;12.67;;;-5.40;99.90;-6.00;100147.00;;;;4895623;28;106509;-64
2022/11/20 01:59:45;;;;;;;23.13;10.63;;;-5.30;99.90;-6.10;100138.00;;;;4894134;28;108164;-64
2022/11/20 02:02:10;;;;;;;23.53;12.33;;;-5.40;99.90;-6.10;100145.00;;;;4897542;28;94993;-64
2022/11/20 02:04:36;;;;;;;18.00;10.63;;;-5.60;99.90;-6.10;100145.00;;;;4895324;28;121696;-63
2022/11/20 02:07:04;;;;;;;18.67;10.83;;;-5.50;99.90;-6.10;100140.00;;;;4897630;28;92207;-63
2022/11/20 02:09:31;;;;;;;21.83;13.07;;;-5.50;99.90;-6.10;100143.00;;;;4896880;28;93211;-64
2022/11/20 02:11:58;;;;;;;19.67;10.67;;;-5.50;99.90;-6.20;100145.00;;;;4894305;28;122553;-63
2022/11/20 02:14:24;;;;;;;18.73;10.83;;;-5.50;99.90;-6.20;100139.00;;;;4892170;28;93852;-64
2022/11/20 02:16:50;;;;;;;16.53;10.77;;;-5.50;99.90;-6.20;100133.00;;;;4892755;28;93000;-63
2022/11/20 02:19:31;;;;;;;20.07;11.47;;;-5.60;99.90;-6.30;100134.00;;;;4893467;28;99468;-64
2022/11/20 02:22:04;;;;;;;22.77;12.57;;;-5.60;99.90;-6.30;100135.00;;;;4908243;28;120136;-64
2022/11/20 02:24:30;;;;;;;19.83;11.97;;;-5.60;99.90;-6.30;100135.00;;;;4894560;28;105650;-64
2022/11/20 02:27:09;;;;;;;20.43;10.77;;;-5.70;99.90;-6.30;100116.00;;;;4895185;28;114002;-64
2022/11/20 02:29:53;;;;;;;19.07;10.60;;;-5.70;99.90;-6.30;100129.00;;;;4893658;28;99680;-64
2022/11/20 02:32:27;;;;;;;18.67;11.03;;;-5.70;99.90;-6.30;100119.00;;;;4895559;28;92439;-63
2022/11/20 02:34:53;;;;;;;20.93;10.90;;;-5.70;99.90;-6.30;100124.00;;;;4896267;28;101685;-64
2022/11/20 02:37:20;;;;;;;20.53;12.67;;;-5.70;99.90;-6.40;100101.00;;;;4899083;28;93040;-64
2022/11/20 02:39:51;;;;;;;19.17;11.77;;;-5.70;99.90;-6.40;100101.00;;;;4899149;28;103640;-65
2022/11/20 02:42:17;;;;;;;23.97;12.17;;;-5.70;99.90;-6.40;100109.00;;;;4899918;28;95248;-64
2022/11/20 02:44:43;;;;;;;19.87;11.57;;;-5.70;99.90;-6.50;100109.00;;;;4901507;28;116541;-64
2022/11/20 02:47:09;;;;;;;18.60;10.37;;;-5.80;99.90;-6.50;100112.00;;;;4893796;28;112064;-64
2022/11/20 02:49:34;;;;;;;22.13;10.87;;;-5.90;99.90;-6.50;100105.00;;;;4895283;28;97266;-64
2022/11/20 02:52:00;;;;;;;21.10;12.07;;;-5.90;99.90;-6.50;100112.00;;;;4893561;28;122487;-65
2022/11/20 02:54:26;;;;;;;19.40;11.87;;;-5.90;99.90;-6.50;100117.00;;;;4891213;28;114031;-65
2022/11/20 02:56:52;;;;;;;24.90;11.57;;;-5.90;99.90;-6.50;100111.00;;;;4891211;28;92884;-64
2022/11/20 02:59:18;;;;;;;21.53;10.93;;;-5.90;99.90;-6.50;100117.00;;;;4894968;28;108915;-64
2022/11/20 03:01:44;;;;;;;20.87;10.97;;;-5.60;99.90;-6.50;100115.00;;;;4892591;28;123135;-64
2022/11/20 03:04:09;;;;;;;17.13;10.87;;;-5.80;99.90;-6.60;100111.00;;;;4893096;28;122906;-65
2022/11/20 03:06:35;;;;;;;15.93;9.67;;;-5.90;99.90;-6.60;100105.00;;;;4892093;28;112587;-64
2022/11/20 03:09:01;;;;;;;19.60;11.13;;;-6.00;99.90;-6.60;100084.00;;;;4894556;28;93678;-64
2022/11/20 03:11:26;;;;;;;19.47;11.37;;;-6.00;99.90;-6.60;100098.00;;;;4892624;28;121947;-64
2022/11/20 03:13:52;;;;;;;20.07;10.97;;;-6.00;99.90;-6.70;100104.00;;;;4897742;28;120464;-64
2022/11/20 03:16:22;;;;;;;21.07;12.10;;;-5.30;99.90;-6.70;100104.00;;;;4892949;28;111936;-65
2022/11/20 03:18:48;;;;;;;19.63;11.63;;;-6.10;99.90;-6.70;100092.00;;;;4896013;28;97813;-64
2022/11/20 03:21:15;;;;;;;21.73;11.80;;;-6.00;99.90;-6.70;100112.00;;;;4895102;28;114102;-65
2022/11/20 03:23:41;;;;;;;18.20;11.00;;;-6.00;99.90;-6.70;100102.00;;;;4895392;28;93166;-65
2022/11/20 03:26:19;;;;;;;27.57;12.80;;;-6.10;99.90;-6.70;100098.00;;;;4893358;28;111078;-65
2022/11/20 03:28:51;;;;;;;20.17;12.60;;;-6.00;99.90;-6.70;100103.00;;;;4894610;28;102785;-65
2022/11/20 03:31:21;;;;;;;24.23;12.83;;;-6.00;99.90;-6.70;100087.00;;;;4892758;28;93518;-65
2022/11/20 03:33:47;;;;;;;25.07;12.87;;;-6.10;99.90;-6.70;100084.00;;;;4887692;28;94101;-65
2022/11/20 03:36:16;;;;;;;21.17;11.83;;;-6.10;99.90;-6.70;100080.00;;;;4893184;28;93092;-65
2022/11/20 03:38:42;;;;;;;17.83;11.20;;;-6.00;99.90;-6.70;100084.00;;;;4892676;28;92968;-64
2022/11/20 03:41:14;;;;;;;27.20;13.30;;;-6.00;99.90;-6.70;100090.00;;;;4894009;28;116270;-64
2022/11/20 03:43:40;;;;;;;19.83;11.90;;;-5.10;99.90;-6.70;100079.00;;;;4893866;28;93336;-64
2022/11/20 03:46:07;;;;;;;22.43;12.63;;;-6.00;99.90;-6.70;100081.00;;;;4895879;28;92099;-64
2022/11/20 03:48:33;;;;;;;20.83;11.70;;;-5.50;99.90;-6.60;100092.00;;;;4890652;28;108902;-64
2022/11/20 03:51:15;;;;;;;28.13;13.20;;;-6.00;99.90;-6.70;100086.00;;;;4894328;28;123249;-64
2022/11/20 03:53:43;;;;;;;19.30;11.87;;;-6.00;99.90;-6.60;100068.00;;;;4896237;28;93995;-64
2022/11/20 03:56:10;;;;;;;24.23;13.20;;;-6.10;99.90;-6.60;100081.00;;;;4896765;28;92962;-64
2022/11/20 03:58:40;;;;;;;20.97;11.60;;;-6.00;99.90;-6.60;100083.00;;;;4896251;28;92909;-64
2022/11/20 04:01:14;;;;;;;26.93;12.70;;;-6.40;99.90;-6.60;100065.00;;;;4896977;28;94701;-64
2022/11/20 04:03:41;;;;;;;20.73;11.90;;;-6.10;99.90;-6.60;100058.00;;;;4897656;28;93934;-65
2022/11/20 04:06:09;;;;;;;23.97;12.73;;;-6.00;99.90;-6.50;100074.00;;;;4891202;28;100931;-65
2022/11/20 04:08:35;;;;;;;17.97;11.17;;;-5.90;99.90;-6.50;100073.00;;;;4891435;28;93007;-65
2022/11/20 04:11:29;;;;;;;21.50;12.43;;;-5.90;99.90;-6.50;100068.00;;;;4891736;28;114452;-64
2022/11/20 04:14:01;;;;;;;24.53;12.17;;;-5.90;99.90;-6.40;100073.00;;;;4891973;28;94906;-65
2022/11/20 04:16:31;;;;;;;23.53;13.73;;;-5.90;99.90;-6.40;100079.00;;;;4899182;28;93017;-65
2022/11/20 04:18:59;;;;;;;18.90;12.00;;;-5.90;99.90;-6.40;100063.00;;;;4893720;28;94004;-65
2022/11/20 04:21:26;;;;;;;28.13;13.50;;;-5.80;99.90;-6.30;100062.00;;;;4894782;28;117825;-65
2022/11/20 04:23:53;;;;;;;22.33;12.47;;;-5.70;99.90;-6.40;100060.00;;;;4894550;28;93403;-65
2022/11/20 04:26:21;;;;;;;29.87;13.17;;;-5.70;99.90;-6.40;100054.00;;;;4896536;28;95020;-66
2022/11/20 04:28:47;;;;;;;20.63;11.53;;;-5.80;99.90;-6.30;100059.00;;;;4893751;28;92952;-66
2022/11/20 04:31:22;;;;;;;22.47;13.33;;;-5.70;99.90;-6.30;100067.00;;;;4892943;28;121767;-66
2022/11/20 04:33:48;;;;;;;21.27;12.17;;;-5.70;99.90;-6.30;100054.00;;;;4887394;28;97692;-65
2022/11/20 04:36:17;;;;;;;22.87;12.53;;;-5.70;99.90;-6.30;100060.00;;;;4893916;28;92207;-66
2022/11/20 04:38:43;;;;;;;27.67;12.70;;;-5.80;99.90;-6.30;100052.00;;;;4890409;28;101186;-65
2022/11/20 04:41:19;;;;;;;24.93;12.80;;;-5.70;99.90;-6.30;100051.00;;;;4890742;28;94580;-65
2022/11/20 04:43:58;;;;;;;24.60;13.17;;;-5.80;99.90;-6.30;100057.00;;;;4890934;28;103234;-65
2022/11/20 04:46:25;;;;;;;21.20;12.73;;;-5.80;99.90;-6.30;100033.00;;;;4894211;28;92949;-66
2022/11/20 04:48:51;;;;;;;21.57;12.53;;;-5.70;99.90;-6.30;100042.00;;;;4890713;28;94827;-65
2022/11/20 04:51:16;;;;;;;23.93;12.83;;;-5.70;99.90;-6.20;100053.00;;;;4892174;28;122902;-65
2022/11/20 04:53:42;;;;;;;21.23;11.60;;;-5.50;99.90;-6.20;100041.00;;;;4894647;28;95443;-65
2022/11/20 04:56:11;;;;;;;23.33;12.10;;;-5.60;99.90;-6.20;100047.00;;;;4895738;28;112236;-66
2022/11/20 04:58:37;;;;;;;25.43;13.20;;;-5.60;99.90;-6.20;100047.00;;;;4897206;28;92937;-65
2022/11/20 05:01:11;;;;;;;22.73;12.10;;;-5.70;99.90;-6.20;100045.00;;;;4897686;28;92759;-66
2022/11/20 05:03:38;;;;;;;24.97;13.27;;;-5.50;99.90;-6.30;100052.00;;;;4896020;28;92713;-66
2022/11/20 05:06:06;;;;;;;27.50;13.43;;;-5.60;99.90;-6.20;100056.00;;;;4894259;28;93198;-66
2022/11/20 05:08:33;;;;;;;23.27;12.00;;;-5.70;99.90;-6.20;100053.00;;;;4899363;28;102404;-66
2022/11/20 05:11:14;;;;;;;28.93;12.53;;;-5.70;99.90;-6.20;100053.00;;;;4897491;28;93540;-65
2022/11/20 05:13:40;;;;;;;25.53;13.53;;;-5.70;99.90;-6.20;100064.00;;;;4898605;28;94233;-65
2022/11/20 05:16:13;;;;;;;24.33;15.27;;;-5.70;99.90;-6.20;100038.00;;;;4897390;28;95888;-67
2022/11/20 05:18:39;;;;;;;26.73;12.93;;;-5.60;99.90;-6.20;100044.00;;;;4892592;28;94756;-65
2022/11/20 05:21:05;;;;;;;23.13;11.70;;;-5.60;99.90;-6.20;100042.00;;;;4894760;28;93579;-65
2022/11/20 05:23:32;;;;;;;22.87;12.93;;;-5.50;99.90;-6.20;100046.00;;;;4897245;28;120675;-65
2022/11/20 05:25:58;;;;;;;26.57;12.47;;;-5.50;99.90;-6.20;100045.00;;;;4900037;28;94764;-65
2022/11/20 05:28:26;;;;;;;25.33;13.20;;;-5.60;99.90;-6.20;100057.00;;;;4896548;28;107503;-65
2022/11/20 05:30:52;;;;;;;22.77;12.30;;;-6.10;99.90;-6.20;100053.00;;;;4899693;28;93285;-65
2022/11/20 05:33:18;;;;;;;21.80;11.13;;;-5.60;99.90;-6.30;100053.00;;;;4898529;28;120891;-65
2022/11/20 05:35:43;;;;;;;25.67;13.00;;;-5.00;99.90;-6.30;100054.00;;;;4899388;28;93236;-65
2022/11/20 05:38:09;;;;;;;21.73;12.13;;;-5.70;99.90;-6.30;100046.00;;;;4895671;28;109846;-65
2022/11/20 05:40:35;;;;;;;23.43;12.60;;;-5.70;99.90;-6.30;100049.00;;;;4899590;28;94010;-65
2022/11/20 05:43:01;;;;;;;26.67;13.83;;;-5.70;99.90;-6.30;100048.00;;;;4895524;28;93413;-65
2022/11/20 05:45:27;;;;;;;22.00;12.23;;;-5.70;99.90;-6.30;100038.00;;;;4899169;28;113699;-65
2022/11/20 05:47:53;;;;;;;26.17;12.00;;;-5.80;99.90;-6.30;100039.00;;;;4897898;28;109634;-65
2022/11/20 05:50:19;;;;;;;18.33;10.97;;;-5.70;99.90;-6.30;100031.00;;;;4894718;28;121049;-65
2022/11/20 05:52:45;;;;;;;19.90;11.73;;;-5.70;99.90;-6.30;100035.00;;;;4896060;28;121921;-65
2022/11/20 05:55:10;;;;;;;20.67;11.63;;;-5.00;99.90;-6.30;100026.00;;;;4894494;28;112374;-64
2022/11/20 05:57:36;;;;;;;24.30;12.43;;;-5.60;99.90;-6.30;100034.00;;;;4893682;28;109601;-67
2022/11/20 06:00:04;;;;;;;21.23;11.83;;;-5.70;99.90;-6.30;100030.00;;;;4894046;28;111034;-65
2022/11/20 06:02:29;;;;;;;26.80;12.00;;;-5.70;99.90;-6.40;100021.00;;;;4895693;28;115465;-66
2022/11/20 06:04:55;;;;;;;25.80;12.40;;;-5.10;99.90;-6.40;100013.00;;;;4898790;28;113306;-66
2022/11/20 06:07:20;;;;;;;30.50;14.77;;;-5.70;99.90;-6.40;100017.00;;;;4896310;28;108890;-66
2022/11/20 06:09:46;;;;;;;28.27;14.67;;;-5.40;99.90;-6.40;100023.00;;;;4895365;28;123549;-66
2022/11/20 06:12:12;;;;;;;25.23;13.87;;;-5.80;99.90;-6.40;100030.00;;;;4894950;28;123490;-67
2022/11/20 06:14:37;;;;;;;39.37;19.27;;;-5.60;99.90;-6.50;100014.00;;;;4895574;28;113741;-67
2022/11/20 06:17:03;;;;;;;32.67;17.20;;;-5.20;99.90;-6.50;100017.00;;;;4893568;28;109128;-66
2022/11/20 06:19:29;;;;;;;33.57;16.77;;;-5.30;99.90;-6.50;100014.00;;;;4897589;28;123280;-66
2022/11/20 06:21:54;;;;;;;23.07;12.63;;;-6.00;99.90;-6.50;100020.00;;;;4898864;28;93905;-66
2022/11/20 06:24:20;;;;;;;23.10;12.43;;;-5.90;99.90;-6.50;100033.00;;;;4895017;28;113080;-67
2022/11/20 06:26:46;;;;;;;24.77;13.10;;;-5.80;99.90;-6.50;100020.00;;;;4895415;28;108724;-64
2022/11/20 06:29:11;;;;;;;22.07;12.30;;;-5.90;99.90;-6.50;100017.00;;;;4894559;28;122527;-65
2022/11/20 06:31:37;;;;;;;22.30;11.57;;;-5.90;99.90;-6.50;100023.00;;;;4892221;28;124273;-66
2022/11/20 06:34:05;;;;;;;18.33;11.37;;;-5.90;99.90;-6.50;100019.00;;;;4896223;28;113301;-66
2022/11/20 06:36:32;;;;;;;29.50;15.23;;;-5.90;99.90;-6.50;100023.00;;;;4911312;28;93319;-66
2022/11/20 06:38:58;;;;;;;33.10;16.47;;;-5.90;99.90;-6.50;100018.00;;;;4894459;28;94410;-64
2022/11/20 06:41:23;;;;;;;21.60;11.77;;;-5.90;99.90;-6.50;100014.00;;;;4896665;28;93329;-66
2022/11/20 06:43:49;;;;;;;23.87;11.90;;;-5.90;99.90;-6.50;100031.00;;;;4896593;28;94931;-65
2022/11/20 06:46:17;;;;;;;22.10;11.53;;;-5.90;99.90;-6.60;100034.00;;;;4898421;28;93956;-65
2022/11/20 06:48:43;;;;;;;24.87;13.47;;;-5.90;99.90;-6.50;100028.00;;;;4894078;28;93976;-65
2022/11/20 06:51:09;;;;;;;26.07;12.63;;;-6.00;99.90;-6.60;100031.00;;;;4895508;28;122473;-64
2022/11/20 06:53:36;;;;;;;23.77;12.13;;;-6.10;99.90;-6.50;100029.00;;;;4898938;28;92951;-65
2022/11/20 06:56:02;;;;;;;22.43;12.27;;;-5.90;99.90;-6.50;100027.00;;;;4895414;28;100791;-65
2022/11/20 06:58:30;;;;;;;24.20;13.63;;;-5.80;99.90;-6.40;100029.00;;;;4893769;28;93523;-65
2022/11/20 07:01:06;;;;;;;23.97;14.47;;;-5.90;99.90;-6.30;100027.00;;;;4895004;28;93133;-65
2022/11/20 07:03:32;;;;;;;24.17;13.47;;;-5.80;99.90;-6.10;100019.00;;;;4894680;28;92291;-66
2022/11/20 07:06:00;;;;;;;26.17;14.10;;;-5.60;99.90;-5.90;100022.00;;;;4907285;28;93079;-65
2022/11/20 07:08:26;;;;;;;28.70;14.13;;;-5.50;99.90;-5.70;100021.00;;;;4901476;28;104562;-65
2022/11/20 07:10:52;;;;;;;30.73;15.50;;;-5.20;99.90;-5.40;100017.00;;;;4888237;28;106109;-65
2022/11/20 07:13:17;;;;;;;25.53;14.80;;;-4.90;99.90;-5.20;100022.00;;;;4889122;28;97724;-65
2022/11/20 07:15:43;;;;;;;25.67;14.70;;;-4.70;99.90;-4.90;100029.00;;;;4889006;28;93011;-65
2022/11/20 07:18:09;;;;;;;28.60;15.90;;;-4.30;99.90;-4.60;100014.00;;;;4891670;28;123222;-64
2022/11/20 07:20:35;;;;;;;24.47;14.07;;;-4.10;99.90;-4.40;100037.00;;;;4892661;28;93864;-64
2022/11/20 07:23:01;;;;;;;26.43;14.17;;;-4.00;99.90;-4.10;100029.00;;;;4888586;28;114084;-64
2022/11/20 07:25:28;;;;;;;26.37;13.83;;;-3.60;99.90;-3.80;100035.00;;;;4889450;28;109408;-64
2022/11/20 07:28:00;;;;;;;18.03;11.20;;;-3.40;99.90;-3.50;100017.00;;;;4891261;28;122102;-62
2022/11/20 07:30:29;;;;;;;22.57;12.07;;;-3.10;99.90;-3.30;100014.00;;;;4891993;28;92937;-63
2022/11/20 07:32:56;;;;;;;19.77;11.17;;;-2.90;99.90;-3.00;100018.00;;;;4891436;28;93098;-63
2022/11/20 07:35:23;;;;;;;20.90;11.03;;;-2.80;99.90;-2.80;100021.00;;;;4888220;28;100921;-63
2022/11/20 07:37:49;;;;;;;18.37;10.77;;;-2.40;99.90;-2.50;100017.00;;;;4891368;28;95421;-62
2022/11/20 07:40:16;;;;;;;17.23;10.57;;;-2.00;99.90;-2.30;100034.00;;;;4886970;28;123029;-64
2022/11/20 07:42:53;;;;;;;19.03;10.13;;;-1.90;99.90;-2.10;100026.00;;;;4906346;28;98906;-62
2022/11/20 07:45:21;;;;;;;13.70;9.23;;;-1.60;99.90;-1.90;100037.00;;;;4890623;28;92960;-63
2022/11/20 07:47:46;;;;;;;16.83;9.37;;;-1.50;99.90;-1.70;100037.00;;;;4894693;28;94675;-63
2022/11/20 07:50:12;;;;;;;22.47;11.40;;;-1.30;99.90;-1.60;100023.00;;;;4889497;28;121000;-64
2022/11/20 07:52:38;;;;;;;17.43;10.03;;;-1.10;99.90;-1.50;100022.00;;;;4888838;28;92386;-62
2022/11/20 07:55:05;;;;;;;12.13;8.43;;;-1.10;99.90;-1.40;100023.00;;;;4894773;28;92985;-64
2022/11/20 07:57:30;;;;;;;14.37;9.17;;;-1.10;99.90;-1.20;100027.00;;;;4892357;28;104959;-63
2022/11/20 07:59:56;;;;;;;16.20;10.27;;;-0.90;99.90;-1.10;100022.00;;;;4893944;28;93798;-63
2022/11/20 08:02:23;;;;;;;20.43;8.53;;;-0.70;99.90;-1.00;100017.00;;;;4892398;28;110703;-64
2022/11/20 08:04:49;;;;;;;20.13;9.40;;;-0.60;99.90;-0.80;100006.00;;;;4893134;28;93194;-66
2022/11/20 08:07:14;;;;;;;14.33;8.83;;;-0.50;99.90;-0.70;100008.00;;;;4893678;28;94040;-64
2022/11/20 08:09:40;;;;;;;10.73;7.23;;;-0.40;99.90;-0.60;100004.00;;;;4888294;28;122161;-65
2022/11/20 08:14:50;;;;;;;12.50;8.60;;;-0.10;99.90;-0.20;100009.00;;;;4887378;28;92858;-66
2022/11/20 08:17:16;;;;;;;11.47;8.00;;;0.10;99.90;-0.10;100008.00;;;;4889214;28;122819;-66
2022/11/20 08:19:41;;;;;;;19.30;9.60;;;0.30;99.90;0.10;100005.00;;;;4891379;28;122043;-67
2022/11/20 08:22:07;;;;;;;15.57;8.70;;;0.30;99.90;0.30;100007.00;;;;4891377;28;110369;-67
2022/11/20 08:24:33;;;;;;;16.13;7.80;;;0.60;99.90;0.50;100002.00;;;;4891716;28;107257;-68
2022/11/20 08:26:59;;;;;;;13.07;8.13;;;1.90;99.90;0.80;100012.00;;;;4891323;28;95454;-66
2022/11/20 08:29:26;;;;;;;13.43;6.80;;;1.00;99.90;1.10;100011.00;;;;4891501;28;98659;-65
2022/11/20 08:31:52;;;;;;;11.63;7.00;;;1.40;99.90;1.50;100010.00;;;;4893409;28;104445;-67
2022/11/20 08:34:17;;;;;;;8.93;6.37;;;1.70;99.90;1.80;100014.00;;;;4891943;28;93157;-68
2022/11/20 08:36:43;;;;;;;12.77;7.53;;;2.00;99.90;1.90;100015.00;;;;4890832;28;123533;-65
2022/11/20 08:39:12;;;;;;;13.17;7.57;;;2.00;99.90;2.00;100015.00;;;;4892688;28;122678;-64
2022/11/20 08:41:37;;;;;;;13.50;7.93;;;2.50;99.90;2.00;100022.00;;;;4894670;28;94676;-65
2022/11/20 08:44:06;;;;;;;9.43;6.57;;;2.30;99.90;2.00;100016.00;;;;4894217;28;108594;-65
2022/11/20 08:46:36;;;;;;;9.27;7.17;;;2.30;99.90;1.90;100016.00;;;;4890775;28;93559;-65
2022/11/20 08:49:02;;;;;;;11.17;7.83;;;2.30;99.90;2.00;100020.00;;;;4891864;28;93987;-65
2022/11/20 08:51:27;;;;;;;15.93;8.40;;;2.30;99.90;2.30;100006.00;;;;4893306;28;93215;-65
2022/11/20 08:53:53;;;;;;;12.70;8.27;;;2.40;99.90;2.60;100021.00;;;;4894582;28;104812;-65
2022/11/20 08:56:19;;;;;;;8.40;6.67;;;2.70;99.90;2.90;100014.00;;;;4892852;28;120875;-65
2022/11/20 08:58:45;;;;;;;8.57;6.50;;;3.00;99.90;3.10;100009.00;;;;4896536;28;92780;-66
2022/11/20 09:01:10;;;;;;;11.80;8.17;;;3.20;99.90;3.20;100006.00;;;;4897907;28;94011;-65
2022/11/20 09:03:36;;;;;;;8.87;7.47;;;3.30;99.90;3.30;100010.00;;;;4900820;28;93930;-65
2022/11/20 09:06:07;;;;;;;11.37;7.57;;;3.40;99.90;3.50;100010.00;;;;4900259;28;113329;-64
2022/11/20 09:08:34;;;;;;;13.00;7.30;;;3.70;99.90;3.70;100003.00;;;;4898189;28;93069;-65
2022/11/20 09:11:00;;;;;;;13.10;7.53;;;3.80;99.90;3.90;100017.00;;;;4898788;28;93613;-66
2022/11/20 09:13:27;;;;;;;9.77;6.70;;;3.90;99.90;4.20;100013.00;;;;4894835;28;94352;-66
2022/11/20 09:16:08;;;;;;;15.33;7.47;;;4.20;99.90;4.50;100012.00;;;;4902362;28;99171;-66
2022/11/20 09:18:38;;;;;;;16.40;8.47;;;4.50;99.90;4.80;100013.00;;;;4895637;28;114757;-65
2022/11/20 09:21:08;;;;;;;15.87;8.33;;;5.10;99.90;4.90;100022.00;;;;4893769;28;93035;-65
2022/11/20 09:23:36;;;;;;;10.40;7.13;;;4.90;99.70;4.80;100009.00;;;;4894321;28;93131;-65
2022/11/20 09:26:08;;;;;;;18.83;8.83;;;5.00;98.10;4.80;100004.00;;;;4893201;28;94039;-65
2022/11/20 09:28:34;;;;;;;14.33;7.90;;;5.00;96.50;4.60;100000.00;;;;4892967;28;96213;-66
2022/11/20 09:31:00;;;;;;;12.63;7.20;;;5.00;94.50;4.40;100003.00;;;;4895918;28;102609;-65
2022/11/20 09:33:26;;;;;;;10.70;6.93;;;4.80;90.70;4.20;100012.00;;;;4896712;28;110475;-65
2022/11/20 09:35:52;;;;;;;10.63;6.40;;;4.50;91.70;4.20;100006.00;;;;4894416;28;92955;-65
2022/11/20 09:38:17;;;;;;;9.33;5.97;;;4.50;92.40;4.30;100007.00;;;;4893081;28;111116;-64
2022/11/20 09:41:03;;;;;;;12.87;7.10;;;4.50;92.90;4.30;100004.00;;;;4894562;28;92796;-66
2022/11/20 09:43:43;;;;;;;11.50;6.17;;;4.60;91.70;4.40;100004.00;;;;4897210;28;93231;-63
2022/11/20 09:46:39;;;;;;;9.77;5.80;;;5.00;90.20;4.10;99987.00;;;;4891512;28;114326;-65
2022/11/20 09:49:27;;;;;;;11.70;6.57;;;4.50;87.20;4.10;99975.00;;;;4893725;28;115692;-65
2022/11/20 09:52:24;;;;;;;7.03;4.83;;;4.40;87.00;4.10;99977.00;;;;4911993;28;104627;-64
2022/11/20 09:54:51;;;;;;;9.90;5.90;;;4.40;87.60;4.20;99975.00;;;;4891866;28;93230;-64
2022/11/20 09:57:26;;;;;;;10.07;6.50;;;4.40;87.40;4.30;99983.00;;;;4895322;28;110221;-65
2022/11/20 09:59:59;;;;;;;6.13;4.77;;;4.50;86.70;4.40;99969.00;;;;4888162;28;115685;-66
2022/11/20 10:02:37;;;;;;;11.80;5.27;;;4.50;87.40;4.60;99972.00;;;;4889207;28;106077;-64
2022/11/20 10:05:13;;;;;;;9.73;6.13;;;4.60;86.40;4.80;99968.00;;;;4891450;28;103082;-65
2022/11/20 10:07:43;;;;;;;11.27;5.23;;;4.90;86.70;4.90;99968.00;;;;4892800;28;93044;-64
2022/11/20 10:10:21;;;;;;;13.00;5.90;;;4.90;84.70;4.80;99968.00;;;;4892571;28;97950;-64
2022/11/20 10:13:34;;;;;;;11.00;5.87;;;5.00;83.60;4.80;99967.00;;;;4891086;28;93408;-65
2022/11/20 10:16:39;;;;;;;8.70;5.63;;;5.00;81.60;4.70;99972.00;;;;4893861;28;92940;-64
2022/11/20 10:20:02;;;;;;;10.10;6.03;;;5.00;80.90;4.70;99964.00;;;;4892534;28;106133;-66
2022/11/20 10:22:55;;;;;;;8.50;5.53;;;4.90;82.20;4.80;99964.00;;;;4894742;28;93023;-67
2022/11/20 10:25:30;;;;;;;9.63;6.03;;;5.00;80.40;4.70;99956.00;;;;4896431;28;92287;-63
2022/11/20 10:28:26;;;;;;;11.10;5.83;;;5.60;79.90;4.60;99956.00;;;;4893703;28;99846;-65
2022/11/20 10:31:08;;;;;;;12.67;5.73;;;4.80;79.80;4.60;99938.00;;;;4894753;28;93639;-67
2022/11/20 10:33:41;;;;;;;7.57;5.73;;;4.80;80.30;4.70;99937.00;;;;4891535;28;104219;-65
2022/11/20 10:36:15;;;;;;;9.90;5.00;;;4.80;81.20;4.80;99940.00;;;;4891235;28;92870;-66
2022/11/20 10:38:57;;;;;;;9.07;5.67;;;5.00;79.80;4.80;99938.00;;;;4891608;28;93022;-64
2022/11/20 10:41:30;;;;;;;12.27;5.60;;;5.00;79.60;4.90;99927.00;;;;4894077;28;93324;-65
2022/11/20 10:44:09;;;;;;;8.67;5.20;;;5.40;81.20;5.00;99938.00;;;;4907658;28;93950;-64
2022/11/20 10:46:54;;;;;;;8.93;5.17;;;5.00;80.30;5.10;99922.00;;;;4906609;28;99880;-64
2022/11/20 10:49:20;;;;;;;16.60;5.50;;;5.10;79.90;5.10;99923.00;;;;4891614;28;107981;-64
2022/11/20 10:52:28;;;;;;;9.13;5.30;;;5.30;80.00;5.20;99928.00;;;;4893392;28;121946;-66
2022/11/20 10:55:02;;;;;;;9.00;6.50;;;5.30;80.20;5.40;99923.00;;;;4891228;28;113916;-65